Lijing, China
Current Conditions -  °F | °C
As of 5:00 AM on Tuesday 21 Oct 2014 (Local Time) from ZPPP Reporting Station
Haze Haze  
Wind Chill: 45°   Ceiling: Unl
Heat Index: 48°   Visibility: 3mi
Dew Point: 48°   Wind: 7mph
Humidity: 100%   Direction: 40°NE
Pressure: 30.3"   Gusts: NA
Location:  26.83°N, 100.47°E
Report Text: ZPPP 202100Z 04003MPS 5000 BR FEW023 SCT033 09/09 Q1026 NOSIG
Loading
Personal Weather Stations






























Interactive Weather Map
Tropical Storm Tracking
New forecast layout! Learn more

10-Day Weather Forecast

Advertisements
Track Severe Weather on mobile